This is the latest recevied weather packets stored in our database for station/object KE4ODN. If no packets are shown the sender has not sent any weather packets the latest 10 day(s).
| Time | Temp. | Humidity | Pressure | Rain* | Wind** | Luminosity | Snow |
|---|---|---|---|---|---|---|---|
| 1777798564 | 7.22° C | 93% | 1019.6 hPa | 0 mm | - | 0 W/m² | - |
| 1777796164 | 7.22° C | 93% | 1019.3 hPa | 0 mm | - | 0 W/m² | - |
| 1777794745 | 7.22° C | 92% | 1019.1 hPa | 0 mm | - | 0 W/m² | - |
| 1777793284 | 7.78° C | 93% | 1019 hPa | 0 mm | - | 0 W/m² | - |
| 1777793065 | 7.78° C | 93% | 1018.9 hPa | 0 mm | - | 0 W/m² | - |
| 1777792825 | 7.78° C | 93% | 1018.8 hPa | 0 mm | - | 0 W/m² | - |
| 1777791364 | 7.78° C | 93% | 1018.7 hPa | 0 mm | - | 0 W/m² | - |
| 1777790644 | 7.78° C | 93% | 1018.7 hPa | 0 mm | - | 0 W/m² | - |
| 1777788724 | 8.33° C | 92% | 1018.6 hPa | 0 mm | - | 0 W/m² | - |
| 1777787524 | 8.33° C | 91% | 1018.5 hPa | 0 mm | - | 0 W/m² | - |
| 1777787065 | 8.33° C | 91% | 1018.5 hPa | 0 mm | - | 0 W/m² | - |
| 1777783924 | 8.89° C | 92% | 1017.8 hPa | 0 mm | - | 0 W/m² | - |
| 1777783444 | 8.89° C | 92% | 1017.8 hPa | 0 mm | - | 0 W/m² | - |
| 1777782244 | 9.44° C | 92% | 1017.6 hPa | 0 mm | - | 0 W/m² | - |
| 1777781764 | 9.44° C | 91% | 1017.6 hPa | 0 mm | - | 0 W/m² | - |
| 1777781284 | 10° C | 91% | 1017.5 hPa | 0 mm | - | 0 W/m² | - |
| 1777779364 | 10° C | 91% | 1017.4 hPa | 0 mm | - | 0 W/m² | - |
| 1777775044 | 11.11° C | 86% | 1017.1 hPa | 0 mm | - | 0 W/m² | - |
| 1777773844 | 11.67° C | 84% | 1016.8 hPa | 0 mm | - | 0 W/m² | - |
| 1777772644 | 12.22° C | 80% | 1016.4 hPa | 0 mm | - | 0 W/m² | - |
| 1777771924 | 12.22° C | 77% | 1016.3 hPa | 0 mm | - | 0 W/m² | - |
| 1777770484 | 13.33° C | 68% | 1015.9 hPa | 0 mm | - | 0 W/m² | - |
| 1777768345 | 15.56° C | 57% | 1015.6 hPa | 0 mm | - | 0 W/m² | - |
| 1777766164 | 17.78° C | 51% | 1015.1 hPa | 0 mm | - | 12 W/m² | - |
| 1777764724 | 18.33° C | 50% | 1014.9 hPa | 0 mm | - | 21 W/m² | - |
* Rain latest hour (hover to see other rain measurements)
** Current wind speed in m/s (hover to see current wind gust speed)